NCAR-RAP Real-Time Weather Data

Output produced by METARs form (06 May 2021  16:37 UTC)
found at http://weather.rap.ucar.edu/surface/
 
KPBI 061601Z 20006KT 10SM TS BKN029CB BKN035 BKN110 32/23 A3003 RMK AO2 LTG DSNT N TSB01 OCNL LTGICCG NW-N TS NW-N MOV NE CB DSNT N T03220233
KPBI 061553Z 24010KT 10SM BKN029CB BKN035 BKN110 31/23 A3004 RMK AO2 LTG DSNT N SLP172 CB OHD-NE MOV NE CB DSNT N T03060228
KPBI 061453Z VRB04KT 10SM SCT023 BKN029 BKN065 31/23 A3006 RMK AO2 SLP178 T03110233 58000
KPBI 061422Z 27006KT 10SM BKN024 BKN029 BKN065 31/23 A3007 RMK AO2 T03060233
KPBI 061353Z 23006KT 10SM SCT021 SCT065 SCT250 29/23 A3007 RMK AO2 SLP181 T02940233
KPBI 061253Z 27007KT 10SM FEW026 SCT065 SCT250 28/23 A3007 RMK AO2 SLP181 T02780233
KPBI 061153Z 24007KT 10SM FEW027 SCT100 SCT250 26/23 A3006 RMK AO2 SLP179 T02610233 10267 20250 53016
KPBI 061053Z 24003KT 10SM FEW030 FEW100 25/23 A3004 RMK AO2 SLP173 T02500228
KPBI 060953Z 22004KT 10SM FEW060 FEW150 26/23 A3003 RMK AO2 SLP167 T02560228
KPBI 060853Z 19005KT 10SM FEW120 26/23 A3002 RMK AO2 SLP163 T02560228 56009
KPBI 060753Z 00000KT 10SM FEW120 26/22 A3002 RMK AO2 SLP164 T02610222
KPBI 060653Z 22003KT 10SM FEW060 26/22 A3002 RMK AO2 SLP164 T02610222
KPBI 060553Z 19003KT 10SM FEW060 26/22 A3004 RMK AO2 SLP173 T02610222 10283 20261 58009
KPBI 060453Z 17003KT 10SM FEW040 FEW150 27/22 A3006 RMK AO2 SLP178 T02670217 403280239
KPBI 060353Z 22006KT 10SM SCT150 27/22 A3007 RMK AO2 SLP182 T02720222
KPBI 060253Z 16006KT 10SM FEW035 SCT060 SCT250 28/22 A3007 RMK AO2 SLP182 T02780222 51016
KPBI 060153Z 17006KT 10SM SCT038 SCT250 28/22 A3006 RMK AO2 SLP179 CB DSNT SW NW T02780222
KPBI 060053Z 16007KT 10SM SCT035 SCT250 28/22 A3004 RMK AO2 SLP172 OCNL LTGICCG DSNT W CB DSNT W T02830222